Time;durP1;ratioP1;P1;durP2;ratioP2;P2;SDS_P1;SDS_P2;PMS_P1;PMS_P2;Temp;Humidity;BMP_temperature;BMP_pressure;BME280_temperature;BME280_humidity;BME280_pressure;Samples;Min_cycle;Max_cycle;Signal;HPM_P1;HPM_P2
2023/11/19 00:00:29;;;;;;;19.85;4.40;;;;;;;19.06;97.91;100752.16;5039296;28;20052;-36
2023/11/19 00:02:54;;;;;;;19.42;4.07;;;;;;;19.05;97.54;100750.50;5048746;28;20033;-38
2023/11/19 00:05:19;;;;;;;16.40;4.18;;;;;;;19.04;97.91;100743.41;5046571;28;20032;-37
2023/11/19 00:07:45;;;;;;;16.30;4.15;;;;;;;19.02;98.50;100748.34;5058937;28;20020;-38
2023/11/19 00:10:11;;;;;;;14.18;4.30;;;;;;;19.02;97.92;100753.84;5033767;28;20066;-38
2023/11/19 00:12:41;;;;;;;21.23;5.55;;;;;;;19.02;98.26;100764.03;5053414;28;20513;-36
2023/11/19 00:15:11;;;;;;;18.42;4.57;;;;;;;19.02;98.33;100772.28;5052999;28;20021;-37
2023/11/19 00:17:44;;;;;;;17.10;3.85;;;;;;;19.00;97.61;100766.22;5042919;28;20048;-37
2023/11/19 00:20:22;;;;;;;16.17;4.15;;;;;;;19.00;97.80;100768.97;5036597;28;20058;-37
2023/11/19 00:22:50;;;;;;;25.90;5.05;;;;;;;19.00;97.98;100755.25;5059678;28;20032;-37
2023/11/19 00:25:19;;;;;;;17.38;4.65;;;;;;;18.99;98.42;100762.66;5054357;28;20082;-37
2023/11/19 00:27:44;;;;;;;15.32;4.15;;;;;;;18.98;98.62;100740.97;5050648;28;20044;-37
2023/11/19 00:30:10;;;;;;;21.45;5.30;;;;;;;18.98;98.67;100741.81;5056253;28;20299;-37
2023/11/19 00:32:38;;;;;;;21.63;5.15;;;;;;;18.94;99.11;100745.41;5079959;28;20043;-37
2023/11/19 00:35:04;;;;;;;21.38;4.90;;;;;;;18.96;99.17;100754.16;5038698;28;20017;-36
2023/11/19 00:37:29;;;;;;;21.95;5.28;;;;;;;18.95;99.51;100738.81;5034238;28;20028;-37
2023/11/19 00:39:56;;;;;;;19.77;4.88;;;;;;;18.94;98.93;100737.16;5049955;28;20020;-36
2023/11/19 00:42:22;;;;;;;18.90;4.28;;;;;;;18.95;99.16;100741.56;5049752;28;20028;-36
2023/11/19 00:44:47;;;;;;;22.73;5.00;;;;;;;18.95;99.34;100738.81;5051267;28;20029;-36
2023/11/19 00:47:13;;;;;;;24.60;4.68;;;;;;;18.92;99.40;100730.03;5047151;28;20426;-36
2023/11/19 00:49:38;;;;;;;23.67;5.18;;;;;;;18.92;99.32;100737.47;5044548;28;20057;-36
2023/11/19 00:52:03;;;;;;;24.85;5.82;;;;;;;18.91;99.47;100742.09;5043201;28;20028;-36
2023/11/19 00:54:29;;;;;;;22.20;5.25;;;;;;;18.91;99.70;100733.06;5042641;28;20027;-36
2023/11/19 00:56:54;;;;;;;26.27;5.70;;;;;;;18.92;99.34;100723.72;5042229;28;20516;-37
2023/11/19 00:59:20;;;;;;;21.00;5.10;;;;;;;18.90;99.97;100737.69;5065013;28;20052;-37
2023/11/19 01:01:47;;;;;;;28.02;5.70;;;;;;;18.91;99.55;100724.81;5045436;28;20039;-37
2023/11/19 01:04:13;;;;;;;21.95;5.00;;;;;;;18.90;99.78;100717.66;5035788;28;20029;-37
2023/11/19 01:06:39;;;;;;;23.45;5.30;;;;;;;18.90;99.46;100720.41;5039923;28;20528;-37
2023/11/19 01:09:04;;;;;;;26.83;5.80;;;;;;;18.91;98.92;100716.59;5037734;28;20482;-36
2023/11/19 01:11:29;;;;;;;24.90;5.68;;;;;;;18.90;99.22;100712.97;5049594;28;20077;-36
2023/11/19 01:13:55;;;;;;;23.30;5.07;;;;;;;18.90;99.15;100707.47;5046405;28;20500;-37
2023/11/19 01:16:21;;;;;;;25.77;6.05;;;;;;;18.88;98.90;100698.72;5036277;28;20092;-36
2023/11/19 01:18:49;;;;;;;30.90;6.90;;;;;;;18.88;99.22;100712.47;5052737;28;20026;-36
2023/11/19 01:21:15;;;;;;;19.67;5.18;;;;;;;18.89;98.72;100713.28;5043635;28;20604;-37
2023/11/19 01:23:44;;;;;;;27.30;5.57;;;;;;;18.88;98.98;100717.94;5054141;28;20356;-37
2023/11/19 01:26:10;;;;;;;28.52;6.07;;;;;;;18.88;98.61;100717.13;5060813;28;20029;-36
2023/11/19 01:28:36;;;;;;;23.70;5.50;;;;;;;18.87;98.48;100716.31;5058689;28;20397;-37
2023/11/19 01:31:01;;;;;;;24.55;5.43;;;;;;;18.85;98.32;100715.75;5052240;28;20096;-37
2023/11/19 01:33:27;;;;;;;24.10;5.40;;;;;;;18.85;98.67;100725.94;5059908;28;20102;-37
2023/11/19 01:35:53;;;;;;;25.63;6.18;;;;;;;18.85;98.53;100725.94;5041809;28;20029;-37
2023/11/19 01:38:18;;;;;;;25.38;5.80;;;;;;;18.84;98.42;100727.84;5045349;28;20043;-37
2023/11/19 01:40:44;;;;;;;22.88;5.65;;;;;;;18.84;98.60;100718.81;5058715;28;20033;-36
2023/11/19 01:43:11;;;;;;;22.65;4.93;;;;;;;18.83;98.44;100730.88;5062960;28;20032;-37
2023/11/19 01:45:37;;;;;;;23.67;5.65;;;;;;;18.82;98.34;100724.59;5046441;28;20033;-38
2023/11/19 01:48:06;;;;;;;27.83;5.75;;;;;;;18.82;98.16;100718.25;5044229;28;20043;-38
2023/11/19 01:50:32;;;;;;;29.92;5.93;;;;;;;18.80;98.07;100707.56;5039313;28;20032;-36
2023/11/19 01:52:57;;;;;;;24.85;6.90;;;;;;;18.79;98.11;100708.66;5041567;28;20043;-36
2023/11/19 01:55:24;;;;;;;25.25;5.93;;;;;;;18.79;98.13;100694.13;5044416;28;20066;-36
2023/11/19 01:57:49;;;;;;;25.30;5.70;;;;;;;18.77;98.04;100711.72;5039914;28;20045;-36
2023/11/19 02:00:16;;;;;;;26.50;5.53;;;;;;;18.76;97.92;100707.31;5057942;28;20397;-36
2023/11/19 02:02:43;;;;;;;26.80;5.85;;;;;;;18.76;97.87;100709.22;5062344;28;20033;-37
2023/11/19 02:05:10;;;;;;;21.30;5.25;;;;;;;18.75;97.93;100726.81;5036743;28;20115;-38
2023/11/19 02:07:35;;;;;;;22.92;5.80;;;;;;;18.76;97.79;100739.44;5045977;28;20070;-37
2023/11/19 02:10:01;;;;;;;26.83;5.47;;;;;;;18.74;97.53;100739.72;5038622;28;20032;-37
2023/11/19 02:12:28;;;;;;;25.48;5.57;;;;;;;18.74;97.51;100755.38;5060104;28;20012;-37
2023/11/19 02:14:54;;;;;;;24.95;6.28;;;;;;;18.73;97.75;100749.06;5051491;28;20416;-37
2023/11/19 02:17:34;;;;;;;29.63;6.05;;;;;;;18.70;97.66;100735.91;5038524;28;20028;-37
2023/11/19 02:19:59;;;;;;;26.73;5.93;;;;;;;18.71;97.49;100743.03;5039144;28;20050;-37
2023/11/19 02:22:25;;;;;;;24.20;6.03;;;;;;;18.69;97.16;100737.00;5055067;28;20552;-37
2023/11/19 02:24:52;;;;;;;28.83;6.07;;;;;;;18.68;97.29;100738.09;5055277;28;20260;-37
2023/11/19 02:27:26;;;;;;;21.60;5.63;;;;;;;18.67;97.10;100730.97;5047547;28;20037;-37
2023/11/19 02:29:51;;;;;;;26.17;5.75;;;;;;;18.66;97.22;100725.78;5051847;28;20055;-37
2023/11/19 02:32:17;;;;;;;24.35;5.90;;;;;;;18.65;97.08;100738.69;5043972;28;20048;-35
2023/11/19 02:34:42;;;;;;;28.45;5.70;;;;;;;18.66;97.34;100721.09;5039457;28;20037;-36
2023/11/19 02:37:08;;;;;;;27.25;5.93;;;;;;;18.65;96.94;100727.72;5055445;28;20541;-36
2023/11/19 02:39:33;;;;;;;25.90;6.32;;;;;;;18.64;97.01;100715.09;5044156;28;20060;-36
2023/11/19 02:41:59;;;;;;;26.02;6.13;;;;;;;18.64;96.89;100727.97;5082731;28;20036;-37
2023/11/19 02:44:28;;;;;;;22.52;5.75;;;;;;;18.64;96.90;100726.06;5047626;28;20021;-37
2023/11/19 02:46:53;;;;;;;27.52;6.45;;;;;;;18.64;96.91;100725.22;5044504;28;20472;-37
2023/11/19 02:49:19;;;;;;;24.85;6.47;;;;;;;18.64;96.79;100701.38;5039807;28;20017;-37
2023/11/19 02:51:44;;;;;;;29.35;6.13;;;;;;;18.64;96.80;100719.75;5045158;28;20428;-37
2023/11/19 02:54:09;;;;;;;19.65;5.50;;;;;;;18.63;96.93;100712.63;5051363;28;20013;-37
2023/11/19 02:56:37;;;;;;;27.92;6.43;;;;;;;18.61;96.92;100718.38;5029982;28;20055;-37
2023/11/19 02:59:14;;;;;;;27.73;5.90;;;;;;;18.60;96.74;100727.72;5033726;28;20497;-38
2023/11/19 03:01:43;;;;;;;33.40;7.88;;;;;;;18.60;96.85;100725.81;5039939;28;20036;-37
2023/11/19 03:04:11;;;;;;;24.50;6.05;;;;;;;18.59;96.63;100712.38;5048763;28;20154;-38
2023/11/19 03:06:37;;;;;;;27.25;6.18;;;;;;;18.59;96.67;100720.63;5050154;28;20063;-38
2023/11/19 03:09:09;;;;;;;29.80;6.32;;;;;;;18.58;96.35;100713.47;5030682;28;20048;-37
2023/11/19 03:11:35;;;;;;;26.65;5.90;;;;;;;18.57;96.73;100720.88;5023918;28;20031;-37
2023/11/19 03:14:00;;;;;;;28.85;6.25;;;;;;;18.57;96.51;100722.81;5029671;28;20392;-36
2023/11/19 03:16:25;;;;;;;29.30;6.45;;;;;;;18.56;96.09;100711.00;5033942;28;20033;-38
2023/11/19 03:18:51;;;;;;;28.08;5.93;;;;;;;18.57;96.38;100712.63;5043833;28;20359;-37
2023/11/19 03:21:16;;;;;;;28.63;6.15;;;;;;;18.57;96.03;100687.13;5057969;28;20124;-36
2023/11/19 03:23:43;;;;;;;32.78;6.40;;;;;;;18.56;96.25;100691.78;5043123;28;20503;-36
2023/11/19 03:26:10;;;;;;;28.23;6.15;;;;;;;18.55;95.86;100686.59;5047447;28;20055;-37
2023/11/19 03:28:35;;;;;;;28.92;6.78;;;;;;;18.54;95.93;100691.28;5036297;28;20074;-35
2023/11/19 03:31:04;;;;;;;23.10;5.85;;;;;;;18.54;95.96;100690.44;5044814;28;20041;-36
2023/11/19 03:33:29;;;;;;;27.90;6.53;;;;;;;18.54;95.95;100695.91;5044292;28;20024;-36
2023/11/19 03:35:56;;;;;;;26.73;6.13;;;;;;;18.53;96.14;100703.34;5045859;28;20085;-36
2023/11/19 03:38:23;;;;;;;28.55;6.70;;;;;;;18.51;95.89;100704.72;5057480;28;20164;-36
2023/11/19 03:40:48;;;;;;;28.58;5.93;;;;;;;18.50;95.96;100723.09;5056375;28;20028;-36
2023/11/19 03:43:14;;;;;;;32.60;6.78;;;;;;;18.49;96.07;100718.75;5052154;28;20036;-36
2023/11/19 03:45:39;;;;;;;28.17;6.35;;;;;;;18.47;95.72;100712.72;5034345;28;20025;-36
2023/11/19 03:48:05;;;;;;;28.25;7.05;;;;;;;18.48;95.92;100717.09;5036303;28;20025;-36
2023/11/19 03:50:30;;;;;;;26.23;5.53;;;;;;;18.49;95.95;100724.25;5027977;28;20115;-37
2023/11/19 03:52:56;;;;;;;29.95;6.22;;;;;;;18.52;95.57;100715.41;5044461;28;20029;-36
2023/11/19 03:55:21;;;;;;;27.65;5.82;;;;;;;18.56;95.63;100711.00;5053003;28;20108;-36
2023/11/19 03:57:48;;;;;;;25.00;5.82;;;;;;;18.62;95.33;100713.72;5049094;28;20512;-36
2023/11/19 04:00:14;;;;;;;23.17;5.95;;;;;;;18.69;95.05;100719.72;5037417;28;20052;-37
2023/11/19 04:02:40;;;;;;;23.92;5.50;;;;;;;18.76;94.94;100729.28;5031672;28;20658;-37
2023/11/19 04:05:06;;;;;;;23.33;6.05;;;;;;;18.85;94.95;100725.94;5019207;28;20052;-38
2023/11/19 04:07:32;;;;;;;27.98;6.45;;;;;;;18.95;94.53;100730.56;5035616;28;20392;-36
2023/11/19 04:09:57;;;;;;;22.80;5.95;;;;;;;19.04;94.03;100728.84;5044652;28;20029;-35
2023/11/19 04:12:23;;;;;;;26.25;6.63;;;;;;;19.14;94.14;100736.19;5040427;28;20033;-35
2023/11/19 04:14:48;;;;;;;30.23;7.28;;;;;;;19.22;93.89;100719.09;5031804;28;20460;-37
2023/11/19 04:17:14;;;;;;;27.65;6.55;;;;;;;19.32;93.46;100720.91;5034846;28;20116;-37
2023/11/19 04:19:41;;;;;;;26.85;6.55;;;;;;;19.40;93.04;100723.84;5032858;28;20085;-36
2023/11/19 04:22:09;;;;;;;29.27;6.90;;;;;;;19.51;92.35;100718.25;5038741;28;20115;-36
2023/11/19 04:24:35;;;;;;;24.38;6.28;;;;;;;19.58;92.21;100715.19;5041318;28;20118;-36
2023/11/19 04:27:00;;;;;;;25.30;7.25;;;;;;;19.67;91.69;100724.44;5034199;28;20069;-39
2023/11/19 04:29:26;;;;;;;24.60;6.15;;;;;;;19.76;91.64;100730.94;5029220;28;20025;-37
2023/11/19 04:31:51;;;;;;;22.08;6.15;;;;;;;19.84;91.48;100735.81;5039753;28;20033;-36
2023/11/19 04:34:16;;;;;;;23.55;5.97;;;;;;;19.89;91.81;100729.47;5043155;28;20020;-36
2023/11/19 04:36:43;;;;;;;24.58;6.40;;;;;;;19.94;91.62;100732.16;5042276;28;20051;-36
2023/11/19 04:39:12;;;;;;;23.38;5.93;;;;;;;19.96;91.53;100734.59;5041689;28;20028;-37
2023/11/19 04:41:53;;;;;;;23.55;6.25;;;;;;;19.95;91.19;100722.78;5042817;28;20029;-38
2023/11/19 04:44:18;;;;;;;21.67;6.10;;;;;;;19.94;90.99;100723.06;5038750;28;20037;-38
2023/11/19 04:46:44;;;;;;;21.77;7.05;;;;;;;19.92;90.75;100725.31;5029252;28;20030;-36
2023/11/19 04:49:17;;;;;;;22.20;6.22;;;;;;;19.88;90.88;100733.31;5043271;28;20107;-37
2023/11/19 04:51:44;;;;;;;22.40;6.28;;;;;;;19.84;90.76;100722.06;5032616;28;20060;-37
2023/11/19 04:54:09;;;;;;;24.70;6.80;;;;;;;19.81;90.88;100738.31;5038356;28;20029;-37
2023/11/19 04:56:39;;;;;;;23.42;6.13;;;;;;;19.76;90.87;100738.38;5030446;28;20075;-37
2023/11/19 04:59:08;;;;;;;20.30;5.78;;;;;;;19.72;90.96;100743.63;5047968;28;20048;-35
2023/11/19 05:01:34;;;;;;;25.02;6.20;;;;;;;19.66;90.78;100737.34;5040167;28;20470;-37
2023/11/19 05:04:00;;;;;;;25.67;6.13;;;;;;;19.62;91.13;100730.81;5042032;28;20029;-36
2023/11/19 05:06:29;;;;;;;23.58;6.25;;;;;;;19.60;90.89;100730.28;5046477;28;20035;-36
2023/11/19 05:08:55;;;;;;;26.35;6.55;;;;;;;19.56;91.02;100738.28;5052545;28;20028;-36
2023/11/19 05:11:21;;;;;;;26.80;6.53;;;;;;;19.52;91.07;100748.22;5043609;28;20033;-37
2023/11/19 05:13:46;;;;;;;26.52;6.05;;;;;;;19.51;91.18;100743.81;5039544;28;20044;-37
2023/11/19 05:16:14;;;;;;;23.25;6.50;;;;;;;19.49;90.93;100739.72;5049674;28;20028;-37
2023/11/19 05:18:40;;;;;;;24.27;5.95;;;;;;;19.47;90.66;100740.03;5043020;28;20036;-37
2023/11/19 05:21:06;;;;;;;22.55;5.93;;;;;;;19.45;90.90;100736.75;5043301;28;20487;-37
2023/11/19 05:23:33;;;;;;;19.80;5.82;;;;;;;19.46;91.09;100737.53;5038507;28;20044;-37
2023/11/19 05:25:59;;;;;;;23.85;6.50;;;;;;;19.46;91.09;100734.81;5042358;28;20033;-37
2023/11/19 05:28:25;;;;;;;21.23;6.10;;;;;;;19.46;90.91;100746.63;5043667;28;20027;-37
2023/11/19 05:30:51;;;;;;;27.67;6.35;;;;;;;19.48;90.66;100738.09;5043067;28;20060;-37
2023/11/19 05:33:16;;;;;;;21.15;6.22;;;;;;;19.47;90.58;100734.53;5036823;28;20103;-37
2023/11/19 05:35:42;;;;;;;22.50;6.03;;;;;;;19.50;90.85;100744.13;5041504;28;20032;-36
2023/11/19 05:38:07;;;;;;;29.52;6.65;;;;;;;19.49;90.20;100746.03;5040417;28;20033;-36
2023/11/19 05:40:33;;;;;;;24.45;6.38;;;;;;;19.53;90.70;100735.28;5036839;28;20455;-36
2023/11/19 05:42:59;;;;;;;22.83;5.28;;;;;;;19.55;90.30;100744.88;5016639;28;20370;-36
2023/11/19 05:45:24;;;;;;;23.08;5.80;;;;;;;19.56;90.41;100742.97;5027700;28;20051;-36
2023/11/19 05:47:51;;;;;;;20.35;6.22;;;;;;;19.56;90.31;100749.28;5067985;28;20027;-36
2023/11/19 05:50:17;;;;;;;17.13;5.22;;;;;;;19.55;90.40;100747.63;5032430;28;20711;-36
2023/11/19 05:52:43;;;;;;;20.15;5.63;;;;;;;19.54;90.53;100742.44;5043370;28;20304;-37
2023/11/19 05:55:11;;;;;;;22.23;6.00;;;;;;;19.52;90.29;100748.22;5042322;28;20036;-37
2023/11/19 05:57:37;;;;;;;20.00;5.65;;;;;;;19.50;90.41;100747.69;5041455;28;20393;-37
2023/11/19 06:00:06;;;;;;;23.52;5.72;;;;;;;19.48;90.33;100744.38;5036979;28;20334;-37
2023/11/19 06:02:33;;;;;;;27.33;6.20;;;;;;;19.47;90.68;100734.53;5033840;28;20029;-37
2023/11/19 06:04:58;;;;;;;23.58;6.13;;;;;;;19.45;90.28;100735.91;5049133;28;20036;-37
2023/11/19 06:07:24;;;;;;;25.13;5.50;;;;;;;19.43;90.45;100738.13;5038470;28;20025;-37
2023/11/19 06:09:50;;;;;;;21.30;5.85;;;;;;;19.43;90.38;100735.41;5039284;28;20013;-37
2023/11/19 06:12:15;;;;;;;24.75;6.07;;;;;;;19.42;90.38;100731.00;5037247;28;20108;-37
2023/11/19 06:14:41;;;;;;;24.98;6.20;;;;;;;19.42;90.08;100726.31;5032186;28;20425;-36
2023/11/19 06:17:08;;;;;;;24.65;6.20;;;;;;;19.42;90.13;100728.25;5031553;28;20033;-37
2023/11/19 06:19:34;;;;;;;28.63;6.70;;;;;;;19.41;90.01;100730.16;5036947;28;20754;-37
2023/11/19 06:21:59;;;;;;;23.98;6.13;;;;;;;19.42;90.24;100736.50;5050473;28;20032;-36
2023/11/19 06:24:25;;;;;;;27.92;6.15;;;;;;;19.42;90.13;100739.25;5054761;28;20108;-36
2023/11/19 06:26:50;;;;;;;22.40;6.25;;;;;;;19.43;90.00;100752.69;5041916;28;20033;-37
2023/11/19 06:29:19;;;;;;;22.63;5.63;;;;;;;19.43;90.08;100747.19;5040680;28;20017;-37
2023/11/19 06:31:45;;;;;;;20.20;5.72;;;;;;;19.46;89.98;100748.53;5059086;28;20032;-37
2023/11/19 06:34:10;;;;;;;25.75;6.55;;;;;;;19.47;89.96;100752.94;5053502;28;20023;-37
2023/11/19 06:36:36;;;;;;;25.40;6.03;;;;;;;19.49;89.83;100754.28;5052200;28;20400;-37
2023/11/19 06:39:01;;;;;;;23.95;5.72;;;;;;;19.51;90.04;100756.72;5057409;28;20191;-36
2023/11/19 06:41:28;;;;;;;21.70;6.03;;;;;;;19.52;90.05;100759.22;5075955;28;20021;-37
2023/11/19 06:43:54;;;;;;;22.75;5.75;;;;;;;19.54;89.94;100770.72;5047936;28;20029;-37
2023/11/19 06:46:19;;;;;;;21.35;6.03;;;;;;;19.53;89.68;100779.25;5049695;28;20472;-37
2023/11/19 06:48:45;;;;;;;24.50;5.85;;;;;;;19.51;89.51;100778.72;5049847;28;20036;-37
2023/11/19 06:51:11;;;;;;;22.38;6.13;;;;;;;19.49;89.78;100772.72;5035921;28;20499;-36
2023/11/19 06:53:36;;;;;;;21.30;6.28;;;;;;;19.48;89.95;100782.88;5047531;28;20040;-37
2023/11/19 06:56:06;;;;;;;19.58;5.30;;;;;;;19.47;90.29;100769.44;5052566;28;20021;-36
2023/11/19 06:58:32;;;;;;;19.55;5.47;;;;;;;19.46;89.97;100784.28;5054196;28;20438;-37
2023/11/19 07:00:57;;;;;;;23.08;5.88;;;;;;;19.43;89.76;100779.38;5047653;28;20029;-35
2023/11/19 07:03:23;;;;;;;21.58;5.53;;;;;;;19.40;90.32;100775.28;5050743;28;20031;-36
2023/11/19 07:05:48;;;;;;;18.80;5.82;;;;;;;19.38;90.07;100771.97;5034088;28;20032;-37
2023/11/19 07:08:14;;;;;;;19.88;5.72;;;;;;;19.36;90.00;100772.28;5038799;28;20481;-36
2023/11/19 07:10:39;;;;;;;25.60;6.70;;;;;;;19.34;90.33;100777.22;5036155;28;20579;-37
2023/11/19 07:13:05;;;;;;;22.33;5.80;;;;;;;19.33;90.21;100775.59;5039788;28;20025;-37
2023/11/19 07:15:32;;;;;;;25.20;6.05;;;;;;;19.33;90.23;100777.53;5031323;28;20024;-37
2023/11/19 07:17:59;;;;;;;18.98;5.28;;;;;;;19.30;90.24;100784.41;5029760;28;20049;-36
2023/11/19 07:20:26;;;;;;;21.33;6.28;;;;;;;19.30;90.50;100776.16;5042143;28;20062;-37
2023/11/19 07:22:52;;;;;;;21.17;5.28;;;;;;;19.30;90.27;100767.94;5039401;28;20020;-37
2023/11/19 07:25:18;;;;;;;23.08;6.20;;;;;;;19.29;90.53;100770.94;5046054;28;20106;-37
2023/11/19 07:27:43;;;;;;;23.15;5.65;;;;;;;19.27;90.37;100756.69;5050600;28;20029;-37
2023/11/19 07:30:09;;;;;;;27.00;6.72;;;;;;;19.26;90.32;100768.78;5047869;28;20025;-36
2023/11/19 07:32:34;;;;;;;25.92;6.40;;;;;;;19.22;90.36;100763.84;5034263;28;20036;-37
2023/11/19 07:35:00;;;;;;;24.65;6.40;;;;;;;19.20;89.93;100774.31;5039437;28;20025;-36
2023/11/19 07:37:26;;;;;;;28.30;6.90;;;;;;;19.20;90.67;100779.81;5047026;28;20071;-37
2023/11/19 07:39:51;;;;;;;23.13;5.85;;;;;;;19.19;90.42;100774.59;5040234;28;20032;-37
2023/11/19 07:42:16;;;;;;;31.15;6.28;;;;;;;19.18;90.40;100772.97;5056920;28;20017;-36
2023/11/19 07:44:43;;;;;;;31.05;6.40;;;;;;;19.16;90.51;100770.50;5035254;28;20029;-36
2023/11/19 07:47:12;;;;;;;27.08;6.43;;;;;;;19.16;90.47;100773.25;5036878;28;20554;-36
2023/11/19 07:49:38;;;;;;;29.67;6.65;;;;;;;19.15;90.42;100760.59;5035528;28;20182;-36
2023/11/19 07:52:03;;;;;;;32.13;7.03;;;;;;;19.14;90.42;100772.72;5041016;28;20507;-37
2023/11/19 07:54:29;;;;;;;25.10;5.65;;;;;;;19.14;90.68;100766.38;5044937;28;20234;-37
2023/11/19 07:56:55;;;;;;;27.05;6.07;;;;;;;19.14;90.35;100767.22;5043242;28;20021;-36
2023/11/19 07:59:20;;;;;;;35.40;7.15;;;;;;;19.13;89.90;100768.34;5039431;28;20044;-37
2023/11/19 08:01:46;;;;;;;28.50;6.18;;;;;;;19.13;89.94;100770.25;5043088;28;20040;-36
2023/11/19 08:04:11;;;;;;;22.55;6.20;;;;;;;19.12;90.39;100776.88;5047707;28;20021;-37
2023/11/19 08:06:37;;;;;;;24.30;6.35;;;;;;;19.11;90.41;100773.28;5051409;28;20197;-37
2023/11/19 08:09:02;;;;;;;21.65;5.30;;;;;;;19.12;90.68;100787.84;5050384;28;20054;-37
2023/11/19 08:11:27;;;;;;;24.63;5.82;;;;;;;19.13;91.30;100783.97;5044136;28;20050;-37
2023/11/19 08:13:53;;;;;;;27.27;6.47;;;;;;;19.12;90.77;100785.91;5040160;28;20090;-37
2023/11/19 08:16:18;;;;;;;28.60;6.63;;;;;;;19.11;90.93;100777.97;5059405;28;20043;-37
2023/11/19 08:18:43;;;;;;;28.73;6.38;;;;;;;19.11;90.96;100775.22;5041764;28;20677;-37
2023/11/19 08:21:09;;;;;;;19.98;5.57;;;;;;;19.08;90.89;100771.94;5069658;28;20013;-37
2023/11/19 08:23:36;;;;;;;26.80;5.93;;;;;;;19.08;90.93;100791.16;5045136;28;20032;-37
2023/11/19 08:26:01;;;;;;;21.00;5.47;;;;;;;19.09;90.91;100786.47;5041652;28;20432;-37
2023/11/19 08:28:27;;;;;;;20.27;5.55;;;;;;;19.09;90.72;100791.97;5035676;28;20087;-37
2023/11/19 08:30:52;;;;;;;24.52;5.97;;;;;;;19.08;90.62;100782.09;5040093;28;20032;-37
2023/11/19 08:33:18;;;;;;;34.17;6.68;;;;;;;19.08;90.47;100782.91;5050544;28;20059;-37
2023/11/19 08:35:43;;;;;;;27.10;6.32;;;;;;;19.04;90.31;100792.84;5053444;28;20480;-37
2023/11/19 08:38:09;;;;;;;28.25;6.32;;;;;;;19.04;90.99;100787.34;5055734;28;20032;-37
2023/11/19 08:40:34;;;;;;;34.40;6.97;;;;;;;19.05;90.80;100782.66;5048859;28;20108;-37
2023/11/19 08:42:59;;;;;;;27.15;6.72;;;;;;;19.03;90.61;100782.13;5041721;28;20061;-38
2023/11/19 08:45:25;;;;;;;26.15;6.93;;;;;;;19.04;90.90;100792.84;5041714;28;20530;-37
2023/11/19 08:47:50;;;;;;;23.92;6.22;;;;;;;19.04;90.58;100775.53;5037264;28;20139;-37
2023/11/19 08:50:16;;;;;;;25.92;6.47;;;;;;;19.04;90.93;100778.28;5033351;28;20250;-37
2023/11/19 08:52:41;;;;;;;27.90;6.45;;;;;;;19.05;90.52;100785.41;5033622;28;20461;-37
2023/11/19 08:55:07;;;;;;;26.67;5.95;;;;;;;19.03;90.86;100782.13;5045257;28;20263;-37
2023/11/19 08:57:35;;;;;;;25.02;6.03;;;;;;;19.04;90.74;100779.13;5038862;28;20036;-37
2023/11/19 09:00:02;;;;;;;17.98;5.45;;;;;;;19.05;90.72;100777.97;5043967;28;20128;-38
2023/11/19 09:02:27;;;;;;;25.45;5.75;;;;;;;19.06;90.93;100781.56;5048300;28;20029;-36
2023/11/19 09:04:53;;;;;;;25.92;6.43;;;;;;;19.06;91.03;100787.88;5048321;28;20025;-37
2023/11/19 09:07:18;;;;;;;28.30;5.63;;;;;;;19.07;90.96;100780.47;5041461;28;20032;-37
2023/11/19 09:09:44;;;;;;;23.92;5.68;;;;;;;19.07;90.63;100784.03;5053904;28;20106;-37
2023/11/19 09:12:09;;;;;;;33.38;6.40;;;;;;;19.06;90.54;100774.13;5048343;28;20036;-36
2023/11/19 09:14:34;;;;;;;27.50;6.55;;;;;;;19.06;90.79;100776.06;5048678;28;20500;-37
2023/11/19 09:17:00;;;;;;;28.05;5.95;;;;;;;19.06;90.69;100778.81;5059673;28;20107;-36
2023/11/19 09:19:28;;;;;;;27.63;6.15;;;;;;;19.06;90.64;100781.56;5035700;28;20132;-37
2023/11/19 09:21:54;;;;;;;27.38;5.93;;;;;;;19.05;90.58;100768.94;5054625;28;20048;-37
2023/11/19 09:24:20;;;;;;;26.05;6.88;;;;;;;19.05;90.16;100783.47;5056455;28;20033;-37
2023/11/19 09:26:45;;;;;;;26.70;5.90;;;;;;;19.06;90.63;100776.06;5039270;28;20472;-37
2023/11/19 09:29:11;;;;;;;26.52;5.82;;;;;;;19.06;90.62;100784.31;5037536;28;20127;-37
2023/11/19 09:31:38;;;;;;;30.70;6.05;;;;;;;19.06;90.72;100776.06;5037764;28;20021;-36
2023/11/19 09:34:03;;;;;;;26.83;5.55;;;;;;;19.07;90.17;100783.22;5054471;28;20026;-37
2023/11/19 09:36:28;;;;;;;28.00;5.97;;;;;;;19.07;90.04;100777.72;5049419;28;20024;-36
2023/11/19 09:38:54;;;;;;;22.73;6.10;;;;;;;19.07;90.63;100769.47;5043328;28;20021;-38
2023/11/19 09:41:19;;;;;;;25.25;5.90;;;;;;;19.07;90.82;100770.28;5048156;28;20039;-38
2023/11/19 09:43:45;;;;;;;24.20;5.82;;;;;;;19.07;90.71;100762.03;5051514;28;20032;-37
2023/11/19 09:46:11;;;;;;;24.00;5.72;;;;;;;19.06;90.77;100768.63;5042375;28;20025;-37
2023/11/19 09:48:37;;;;;;;25.20;6.15;;;;;;;19.07;91.08;100766.72;5042205;28;20037;-38
2023/11/19 09:51:04;;;;;;;19.67;4.93;;;;;;;19.08;90.95;100777.44;5038695;28;20024;-38
2023/11/19 09:53:31;;;;;;;25.73;6.15;;;;;;;19.08;91.13;100777.44;5036781;28;20067;-38
2023/11/19 09:55:57;;;;;;;25.90;5.90;;;;;;;19.11;90.87;100777.97;5043249;28;20036;-37
2023/11/19 09:58:23;;;;;;;23.00;5.20;;;;;;;19.11;90.88;100792.50;5034774;28;20121;-36
2023/11/19 10:00:50;;;;;;;23.23;6.18;;;;;;;19.13;90.74;100783.97;5042321;28;20178;-37
2023/11/19 10:03:15;;;;;;;22.67;6.00;;;;;;;19.15;90.53;100779.03;5054508;28;20428;-36
2023/11/19 10:05:41;;;;;;;27.35;6.50;;;;;;;19.14;90.32;100791.13;5044946;28;20021;-36
2023/11/19 10:08:07;;;;;;;25.65;5.63;;;;;;;19.14;90.19;100782.88;5045154;28;20371;-37
2023/11/19 10:10:33;;;;;;;22.45;5.53;;;;;;;19.14;90.39;100778.22;5046001;28;20379;-37
2023/11/19 10:13:00;;;;;;;18.67;5.38;;;;;;;19.16;90.90;100786.16;5055885;28;20500;-37
2023/11/19 10:15:26;;;;;;;18.05;5.25;;;;;;;19.16;91.18;100778.72;5041913;28;20047;-37
2023/11/19 10:17:57;;;;;;;21.63;5.65;;;;;;;19.16;90.97;100777.94;5032568;28;20041;-35
2023/11/19 10:20:23;;;;;;;21.52;5.00;;;;;;;19.18;91.30;100775.72;5032351;28;20065;-36
2023/11/19 10:22:53;;;;;;;18.52;5.10;;;;;;;19.19;91.56;100786.41;5043921;28;20107;-36
2023/11/19 10:25:22;;;;;;;24.35;5.50;;;;;;;19.21;91.52;100773.22;5043724;28;20493;-37
2023/11/19 10:27:48;;;;;;;18.20;5.65;;;;;;;19.23;91.65;100779.22;5051089;28;20028;-38
2023/11/19 10:30:17;;;;;;;22.13;5.15;;;;;;;19.25;91.51;100762.44;5038807;28;20052;-36
2023/11/19 10:32:43;;;;;;;16.55;4.65;;;;;;;19.27;91.52;100757.50;5036897;28;20316;-36
2023/11/19 10:35:12;;;;;;;18.10;5.10;;;;;;;19.28;91.66;100761.88;5042746;28;20032;-37
2023/11/19 10:37:37;;;;;;;19.35;5.00;;;;;;;19.30;91.65;100759.69;5040104;28;20139;-37
2023/11/19 10:40:05;;;;;;;25.08;5.90;;;;;;;19.33;91.78;100763.78;5034976;28;20064;-37
2023/11/19 10:42:30;;;;;;;17.88;4.82;;;;;;;19.35;91.89;100762.38;5045595;28;20023;-37
2023/11/19 10:44:56;;;;;;;21.38;5.45;;;;;;;19.37;92.05;100760.19;5047355;28;20021;-37
2023/11/19 10:47:22;;;;;;;17.15;5.00;;;;;;;19.40;91.68;100778.81;5038814;28;20024;-37
2023/11/19 10:49:48;;;;;;;16.63;4.82;;;;;;;19.44;91.95;100767.28;5042019;28;20033;-37
2023/11/19 10:52:19;;;;;;;20.83;5.65;;;;;;;19.45;91.42;100760.63;5052884;28;20036;-37
2023/11/19 10:54:49;;;;;;;51.95;6.05;;;;;;;19.49;91.92;100759.78;5041842;28;20115;-39
2023/11/19 10:57:19;;;;;;;28.38;6.75;;;;;;;19.55;92.07;100757.81;5057343;28;20103;-39
2023/11/19 10:59:45;;;;;;;21.33;5.05;;;;;;;19.62;92.16;100763.81;5045183;28;20481;-39
2023/11/19 11:02:14;;;;;;;26.02;5.95;;;;;;;19.69;91.74;100757.94;5048757;28;20075;-39
2023/11/19 11:04:42;;;;;;;20.20;5.00;;;;;;;19.76;92.24;100772.19;5048240;28;20727;-39
2023/11/19 11:07:07;;;;;;;19.33;5.65;;;;;;;19.81;91.99;100768.56;5042706;28;20029;-38
2023/11/19 11:09:34;;;;;;;21.10;4.97;;;;;;;19.86;91.94;100774.88;5069827;28;20049;-39
2023/11/19 11:12:00;;;;;;;19.58;5.13;;;;;;;19.91;91.47;100760.22;5048861;28;20078;-38